sensor_id;sensor_type;location;lat;lon;timestamp;P1;durP1;ratioP1;P2;durP2;ratioP2
52210;SDS011;38179;52.756;6.906;2024-02-26T00:01:58;18.98;;;15.18;;
52210;SDS011;38179;52.756;6.906;2024-02-26T00:04:24;19.10;;;14.82;;
52210;SDS011;38179;52.756;6.906;2024-02-26T00:06:50;19.65;;;16.05;;
52210;SDS011;38179;52.756;6.906;2024-02-26T00:09:16;21.20;;;16.08;;
52210;SDS011;38179;52.756;6.906;2024-02-26T00:11:42;22.60;;;16.02;;
52210;SDS011;38179;52.756;6.906;2024-02-26T00:14:07;21.85;;;17.63;;
52210;SDS011;38179;52.756;6.906;2024-02-26T00:16:33;20.88;;;16.60;;
52210;SDS011;38179;52.756;6.906;2024-02-26T00:18:59;21.90;;;16.52;;
52210;SDS011;38179;52.756;6.906;2024-02-26T00:21:24;21.83;;;16.60;;
52210;SDS011;38179;52.756;6.906;2024-02-26T00:23:50;26.30;;;16.95;;
52210;SDS011;38179;52.756;6.906;2024-02-26T00:26:17;22.05;;;17.23;;
52210;SDS011;38179;52.756;6.906;2024-02-26T00:28:43;22.45;;;17.55;;
52210;SDS011;38179;52.756;6.906;2024-02-26T00:31:08;20.58;;;16.85;;
52210;SDS011;38179;52.756;6.906;2024-02-26T00:33:34;21.45;;;16.83;;
52210;SDS011;38179;52.756;6.906;2024-02-26T00:36:00;21.30;;;16.25;;
52210;SDS011;38179;52.756;6.906;2024-02-26T00:38:25;20.80;;;16.55;;
52210;SDS011;38179;52.756;6.906;2024-02-26T00:40:51;22.35;;;17.63;;
52210;SDS011;38179;52.756;6.906;2024-02-26T00:43:17;21.63;;;16.70;;
52210;SDS011;38179;52.756;6.906;2024-02-26T00:45:43;22.30;;;17.35;;
52210;SDS011;38179;52.756;6.906;2024-02-26T00:48:09;26.52;;;16.95;;
52210;SDS011;38179;52.756;6.906;2024-02-26T00:50:34;21.38;;;16.60;;
52210;SDS011;38179;52.756;6.906;2024-02-26T00:53:01;20.50;;;16.50;;
52210;SDS011;38179;52.756;6.906;2024-02-26T00:55:26;21.45;;;16.83;;
52210;SDS011;38179;52.756;6.906;2024-02-26T00:57:52;24.75;;;17.15;;
52210;SDS011;38179;52.756;6.906;2024-02-26T01:00:18;20.40;;;16.77;;
52210;SDS011;38179;52.756;6.906;2024-02-26T01:02:44;22.50;;;17.00;;
52210;SDS011;38179;52.756;6.906;2024-02-26T01:05:12;21.47;;;17.20;;
52210;SDS011;38179;52.756;6.906;2024-02-26T01:07:38;21.23;;;16.75;;
52210;SDS011;38179;52.756;6.906;2024-02-26T01:10:05;20.27;;;16.88;;
52210;SDS011;38179;52.756;6.906;2024-02-26T01:12:34;20.85;;;16.45;;
52210;SDS011;38179;52.756;6.906;2024-02-26T01:15:03;24.08;;;17.38;;
52210;SDS011;38179;52.756;6.906;2024-02-26T01:19:55;21.13;;;16.95;;
52210;SDS011;38179;52.756;6.906;2024-02-26T01:22:21;22.55;;;17.27;;
52210;SDS011;38179;52.756;6.906;2024-02-26T01:24:46;21.40;;;17.23;;
52210;SDS011;38179;52.756;6.906;2024-02-26T01:27:12;23.48;;;18.52;;
52210;SDS011;38179;52.756;6.906;2024-02-26T01:29:39;23.48;;;17.27;;
52210;SDS011;38179;52.756;6.906;2024-02-26T01:32:05;23.75;;;18.02;;
52210;SDS011;38179;52.756;6.906;2024-02-26T01:34:31;22.15;;;18.05;;
52210;SDS011;38179;52.756;6.906;2024-02-26T01:36:57;24.52;;;18.00;;
52210;SDS011;38179;52.756;6.906;2024-02-26T01:39:23;23.13;;;18.92;;
52210;SDS011;38179;52.756;6.906;2024-02-26T01:41:48;25.70;;;19.45;;
52210;SDS011;38179;52.756;6.906;2024-02-26T01:44:14;25.50;;;19.98;;
52210;SDS011;38179;52.756;6.906;2024-02-26T01:46:40;24.70;;;18.60;;
52210;SDS011;38179;52.756;6.906;2024-02-26T01:49:06;23.05;;;18.15;;
52210;SDS011;38179;52.756;6.906;2024-02-26T01:51:33;23.75;;;19.00;;
52210;SDS011;38179;52.756;6.906;2024-02-26T01:54:00;25.98;;;19.08;;
52210;SDS011;38179;52.756;6.906;2024-02-26T01:56:28;23.95;;;18.55;;
52210;SDS011;38179;52.756;6.906;2024-02-26T01:58:57;23.73;;;18.25;;
52210;SDS011;38179;52.756;6.906;2024-02-26T02:01:25;24.55;;;19.08;;
52210;SDS011;38179;52.756;6.906;2024-02-26T02:03:52;24.75;;;18.88;;
52210;SDS011;38179;52.756;6.906;2024-02-26T02:06:18;24.02;;;18.48;;
52210;SDS011;38179;52.756;6.906;2024-02-26T02:08:44;25.00;;;19.40;;
52210;SDS011;38179;52.756;6.906;2024-02-26T02:11:11;26.10;;;20.33;;
52210;SDS011;38179;52.756;6.906;2024-02-26T02:13:37;27.63;;;19.48;;
52210;SDS011;38179;52.756;6.906;2024-02-26T02:16:03;23.70;;;18.92;;
52210;SDS011;38179;52.756;6.906;2024-02-26T02:18:29;24.30;;;19.27;;
52210;SDS011;38179;52.756;6.906;2024-02-26T02:20:55;28.70;;;20.52;;
52210;SDS011;38179;52.756;6.906;2024-02-26T02:23:27;24.42;;;18.98;;
52210;SDS011;38179;52.756;6.906;2024-02-26T02:25:53;24.42;;;19.20;;
52210;SDS011;38179;52.756;6.906;2024-02-26T02:28:20;26.45;;;19.27;;
52210;SDS011;38179;52.756;6.906;2024-02-26T02:30:46;25.58;;;19.63;;
52210;SDS011;38179;52.756;6.906;2024-02-26T02:33:13;24.83;;;19.27;;
52210;SDS011;38179;52.756;6.906;2024-02-26T02:35:40;28.13;;;20.38;;
52210;SDS011;38179;52.756;6.906;2024-02-26T02:38:06;25.48;;;18.38;;
52210;SDS011;38179;52.756;6.906;2024-02-26T02:40:31;26.42;;;19.75;;
52210;SDS011;38179;52.756;6.906;2024-02-26T02:42:57;25.02;;;18.35;;
52210;SDS011;38179;52.756;6.906;2024-02-26T02:45:23;25.13;;;19.50;;
52210;SDS011;38179;52.756;6.906;2024-02-26T02:47:49;26.23;;;19.23;;
52210;SDS011;38179;52.756;6.906;2024-02-26T02:50:15;25.15;;;19.42;;
52210;SDS011;38179;52.756;6.906;2024-02-26T02:52:41;28.73;;;19.52;;
52210;SDS011;38179;52.756;6.906;2024-02-26T02:55:06;25.50;;;19.35;;
52210;SDS011;38179;52.756;6.906;2024-02-26T02:57:32;28.70;;;20.33;;
52210;SDS011;38179;52.756;6.906;2024-02-26T02:59:58;27.40;;;19.55;;
52210;SDS011;38179;52.756;6.906;2024-02-26T03:02:24;27.42;;;20.25;;
52210;SDS011;38179;52.756;6.906;2024-02-26T03:04:50;27.23;;;20.77;;
52210;SDS011;38179;52.756;6.906;2024-02-26T03:07:16;30.10;;;21.05;;
52210;SDS011;38179;52.756;6.906;2024-02-26T03:09:41;27.20;;;20.73;;
52210;SDS011;38179;52.756;6.906;2024-02-26T03:12:07;27.90;;;19.33;;
52210;SDS011;38179;52.756;6.906;2024-02-26T03:14:33;26.52;;;19.15;;
52210;SDS011;38179;52.756;6.906;2024-02-26T03:17:00;29.55;;;20.42;;
52210;SDS011;38179;52.756;6.906;2024-02-26T03:19:26;28.08;;;20.63;;
52210;SDS011;38179;52.756;6.906;2024-02-26T03:21:52;31.40;;;21.00;;
52210;SDS011;38179;52.756;6.906;2024-02-26T03:24:17;29.90;;;20.45;;
52210;SDS011;38179;52.756;6.906;2024-02-26T10:53:23;15.50;;;11.23;;
52210;SDS011;38179;52.756;6.906;2024-02-26T10:55:57;12.98;;;10.32;;
52210;SDS011;38179;52.756;6.906;2024-02-26T10:58:30;13.02;;;11.02;;
52210;SDS011;38179;52.756;6.906;2024-02-26T11:00:57;15.90;;;11.27;;
52210;SDS011;38179;52.756;6.906;2024-02-26T11:03:23;13.15;;;10.40;;
52210;SDS011;38179;52.756;6.906;2024-02-26T11:05:50;13.55;;;10.63;;
52210;SDS011;38179;52.756;6.906;2024-02-26T11:08:18;14.35;;;11.50;;
52210;SDS011;38179;52.756;6.906;2024-02-26T11:10:48;14.38;;;11.88;;
52210;SDS011;38179;52.756;6.906;2024-02-26T11:13:17;17.42;;;12.00;;
52210;SDS011;38179;52.756;6.906;2024-02-26T11:16:06;17.98;;;12.18;;
52210;SDS011;38179;52.756;6.906;2024-02-26T11:18:32;14.25;;;11.70;;
52210;SDS011;38179;52.756;6.906;2024-02-26T11:20:59;12.95;;;10.63;;
52210;SDS011;38179;52.756;6.906;2024-02-26T11:23:25;14.48;;;11.23;;
52210;SDS011;38179;52.756;6.906;2024-02-26T11:25:52;14.52;;;11.82;;
52210;SDS011;38179;52.756;6.906;2024-02-26T11:28:22;16.55;;;11.63;;
52210;SDS011;38179;52.756;6.906;2024-02-26T11:30:49;15.10;;;11.93;;
52210;SDS011;38179;52.756;6.906;2024-02-26T11:33:17;14.48;;;11.50;;
52210;SDS011;38179;52.756;6.906;2024-02-26T11:35:43;13.65;;;11.60;;
52210;SDS011;38179;52.756;6.906;2024-02-26T11:38:16;13.80;;;11.32;;
52210;SDS011;38179;52.756;6.906;2024-02-26T11:40:45;13.93;;;11.52;;
52210;SDS011;38179;52.756;6.906;2024-02-26T11:43:12;15.93;;;12.13;;
52210;SDS011;38179;52.756;6.906;2024-02-26T11:48:14;13.73;;;11.70;;
52210;SDS011;38179;52.756;6.906;2024-02-26T11:50:42;17.13;;;12.98;;
52210;SDS011;38179;52.756;6.906;2024-02-26T11:55:48;14.38;;;11.88;;
52210;SDS011;38179;52.756;6.906;2024-02-26T11:58:33;13.80;;;11.25;;
52210;SDS011;38179;52.756;6.906;2024-02-26T12:00:59;15.52;;;11.77;;
52210;SDS011;38179;52.756;6.906;2024-02-26T12:03:25;14.07;;;11.70;;
52210;SDS011;38179;52.756;6.906;2024-02-26T12:05:51;16.88;;;12.60;;
52210;SDS011;38179;52.756;6.906;2024-02-26T12:08:17;14.77;;;11.98;;
52210;SDS011;38179;52.756;6.906;2024-02-26T12:10:46;16.60;;;12.13;;
52210;SDS011;38179;52.756;6.906;2024-02-26T12:13:14;15.68;;;12.30;;
52210;SDS011;38179;52.756;6.906;2024-02-26T12:15:44;15.98;;;12.50;;
52210;SDS011;38179;52.756;6.906;2024-02-26T12:18:15;15.02;;;12.15;;
52210;SDS011;38179;52.756;6.906;2024-02-26T12:20:43;17.48;;;12.77;;
52210;SDS011;38179;52.756;6.906;2024-02-26T12:23:15;15.35;;;12.63;;
52210;SDS011;38179;52.756;6.906;2024-02-26T12:25:43;15.55;;;12.60;;
52210;SDS011;38179;52.756;6.906;2024-02-26T12:28:09;15.15;;;12.63;;
52210;SDS011;38179;52.756;6.906;2024-02-26T12:30:35;16.42;;;11.55;;
52210;SDS011;38179;52.756;6.906;2024-02-26T12:33:00;15.40;;;12.48;;
52210;SDS011;38179;52.756;6.906;2024-02-26T12:35:28;15.35;;;12.73;;
52210;SDS011;38179;52.756;6.906;2024-02-26T12:37:54;15.35;;;12.93;;
52210;SDS011;38179;52.756;6.906;2024-02-26T12:40:20;15.82;;;12.82;;
52210;SDS011;38179;52.756;6.906;2024-02-26T12:42:46;15.95;;;12.35;;
52210;SDS011;38179;52.756;6.906;2024-02-26T12:45:13;16.52;;;12.95;;
52210;SDS011;38179;52.756;6.906;2024-02-26T12:47:41;16.33;;;12.85;;
52210;SDS011;38179;52.756;6.906;2024-02-26T12:50:08;14.07;;;11.68;;
52210;SDS011;38179;52.756;6.906;2024-02-26T12:52:35;13.95;;;11.73;;
52210;SDS011;38179;52.756;6.906;2024-02-26T12:55:13;14.88;;;12.52;;
52210;SDS011;38179;52.756;6.906;2024-02-26T12:57:42;15.57;;;12.73;;
52210;SDS011;38179;52.756;6.906;2024-02-26T13:00:10;13.98;;;11.90;;
52210;SDS011;38179;52.756;6.906;2024-02-26T13:02:48;14.25;;;11.90;;
52210;SDS011;38179;52.756;6.906;2024-02-26T13:05:15;14.57;;;11.23;;
52210;SDS011;38179;52.756;6.906;2024-02-26T13:07:43;14.05;;;11.63;;
52210;SDS011;38179;52.756;6.906;2024-02-26T13:12:44;14.10;;;11.35;;
52210;SDS011;38179;52.756;6.906;2024-02-26T13:15:15;13.13;;;11.15;;
52210;SDS011;38179;52.756;6.906;2024-02-26T13:17:42;13.20;;;10.80;;
52210;SDS011;38179;52.756;6.906;2024-02-26T13:20:08;13.38;;;10.90;;
52210;SDS011;38179;52.756;6.906;2024-02-26T13:22:35;13.63;;;11.07;;
52210;SDS011;38179;52.756;6.906;2024-02-26T13:25:01;36.38;;;12.45;;
52210;SDS011;38179;52.756;6.906;2024-02-26T13:27:32;14.95;;;11.35;;
52210;SDS011;38179;52.756;6.906;2024-02-26T13:32:36;14.90;;;11.75;;
52210;SDS011;38179;52.756;6.906;2024-02-26T13:37:32;15.07;;;11.50;;
52210;SDS011;38179;52.756;6.906;2024-02-26T13:40:09;14.25;;;11.00;;
52210;SDS011;38179;52.756;6.906;2024-02-26T13:42:39;12.73;;;11.15;;
52210;SDS011;38179;52.756;6.906;2024-02-26T13:45:05;13.20;;;10.65;;
52210;SDS011;38179;52.756;6.906;2024-02-26T13:47:35;12.98;;;10.68;;
52210;SDS011;38179;52.756;6.906;2024-02-26T13:50:03;13.73;;;11.18;;
52210;SDS011;38179;52.756;6.906;2024-02-26T13:52:29;13.20;;;11.18;;
52210;SDS011;38179;52.756;6.906;2024-02-26T13:54:57;13.00;;;10.90;;
52210;SDS011;38179;52.756;6.906;2024-02-26T13:57:24;13.63;;;10.93;;
52210;SDS011;38179;52.756;6.906;2024-02-26T13:59:50;13.20;;;10.95;;
52210;SDS011;38179;52.756;6.906;2024-02-26T14:02:16;13.32;;;11.00;;
52210;SDS011;38179;52.756;6.906;2024-02-26T14:04:42;14.82;;;12.45;;
52210;SDS011;38179;52.756;6.906;2024-02-26T14:07:08;12.98;;;11.15;;
52210;SDS011;38179;52.756;6.906;2024-02-26T14:09:35;14.63;;;11.75;;
52210;SDS011;38179;52.756;6.906;2024-02-26T14:12:01;13.15;;;11.18;;
52210;SDS011;38179;52.756;6.906;2024-02-26T14:14:27;14.10;;;12.35;;
52210;SDS011;38179;52.756;6.906;2024-02-26T14:16:53;15.32;;;12.57;;
52210;SDS011;38179;52.756;6.906;2024-02-26T14:19:19;14.38;;;12.43;;
52210;SDS011;38179;52.756;6.906;2024-02-26T14:21:44;16.35;;;12.57;;
52210;SDS011;38179;52.756;6.906;2024-02-26T14:24:10;14.77;;;12.65;;
52210;SDS011;38179;52.756;6.906;2024-02-26T14:26:36;16.95;;;12.63;;
52210;SDS011;38179;52.756;6.906;2024-02-26T14:29:02;14.55;;;12.98;;
52210;SDS011;38179;52.756;6.906;2024-02-26T14:31:28;14.70;;;12.45;;
52210;SDS011;38179;52.756;6.906;2024-02-26T14:33:54;16.33;;;13.40;;
52210;SDS011;38179;52.756;6.906;2024-02-26T14:36:20;15.60;;;12.75;;
52210;SDS011;38179;52.756;6.906;2024-02-26T14:38:46;16.02;;;12.93;;
52210;SDS011;38179;52.756;6.906;2024-02-26T14:41:12;16.33;;;13.77;;
52210;SDS011;38179;52.756;6.906;2024-02-26T14:43:38;16.95;;;13.65;;
52210;SDS011;38179;52.756;6.906;2024-02-26T14:46:04;17.45;;;14.10;;
52210;SDS011;38179;52.756;6.906;2024-02-26T14:48:30;18.73;;;15.00;;
52210;SDS011;38179;52.756;6.906;2024-02-26T14:50:56;17.73;;;14.38;;
52210;SDS011;38179;52.756;6.906;2024-02-26T14:53:23;17.45;;;14.18;;
52210;SDS011;38179;52.756;6.906;2024-02-26T14:55:49;17.42;;;13.73;;
52210;SDS011;38179;52.756;6.906;2024-02-26T14:58:15;17.33;;;14.52;;
52210;SDS011;38179;52.756;6.906;2024-02-26T15:00:41;17.73;;;14.70;;
52210;SDS011;38179;52.756;6.906;2024-02-26T15:03:07;16.27;;;13.57;;
52210;SDS011;38179;52.756;6.906;2024-02-26T15:05:33;16.02;;;12.95;;
52210;SDS011;38179;52.756;6.906;2024-02-26T15:07:59;19.08;;;13.80;;
52210;SDS011;38179;52.756;6.906;2024-02-26T15:10:25;16.52;;;13.43;;
52210;SDS011;38179;52.756;6.906;2024-02-26T15:12:51;16.30;;;12.57;;
52210;SDS011;38179;52.756;6.906;2024-02-26T15:15:20;18.45;;;14.10;;
52210;SDS011;38179;52.756;6.906;2024-02-26T15:17:47;18.60;;;13.77;;
52210;SDS011;38179;52.756;6.906;2024-02-26T15:20:14;17.00;;;13.57;;
52210;SDS011;38179;52.756;6.906;2024-02-26T15:22:40;18.75;;;14.35;;
52210;SDS011;38179;52.756;6.906;2024-02-26T15:25:07;17.58;;;13.88;;
52210;SDS011;38179;52.756;6.906;2024-02-26T15:27:33;18.05;;;13.57;;
52210;SDS011;38179;52.756;6.906;2024-02-26T15:29:59;18.67;;;14.50;;
52210;SDS011;38179;52.756;6.906;2024-02-26T15:32:25;18.23;;;14.15;;
52210;SDS011;38179;52.756;6.906;2024-02-26T15:34:52;17.83;;;14.43;;
52210;SDS011;38179;52.756;6.906;2024-02-26T15:37:21;18.63;;;14.65;;
52210;SDS011;38179;52.756;6.906;2024-02-26T15:39:47;17.80;;;13.85;;
52210;SDS011;38179;52.756;6.906;2024-02-26T15:42:13;18.10;;;14.23;;
52210;SDS011;38179;52.756;6.906;2024-02-26T15:44:39;19.17;;;14.70;;
52210;SDS011;38179;52.756;6.906;2024-02-26T15:47:05;18.92;;;14.80;;
52210;SDS011;38179;52.756;6.906;2024-02-26T15:49:31;19.30;;;14.50;;
52210;SDS011;38179;52.756;6.906;2024-02-26T15:51:57;19.70;;;15.00;;
52210;SDS011;38179;52.756;6.906;2024-02-26T15:54:23;18.55;;;14.27;;
52210;SDS011;38179;52.756;6.906;2024-02-26T15:56:49;19.55;;;15.45;;
52210;SDS011;38179;52.756;6.906;2024-02-26T15:59:15;19.83;;;14.48;;
52210;SDS011;38179;52.756;6.906;2024-02-26T16:01:41;18.45;;;14.57;;
52210;SDS011;38179;52.756;6.906;2024-02-26T16:04:07;18.17;;;14.63;;
52210;SDS011;38179;52.756;6.906;2024-02-26T16:06:36;17.48;;;14.23;;
52210;SDS011;38179;52.756;6.906;2024-02-26T16:09:05;19.08;;;14.80;;
52210;SDS011;38179;52.756;6.906;2024-02-26T16:11:32;17.60;;;14.48;;
52210;SDS011;38179;52.756;6.906;2024-02-26T16:14:00;20.38;;;14.98;;
52210;SDS011;38179;52.756;6.906;2024-02-26T16:16:58;16.45;;;13.30;;
52210;SDS011;38179;52.756;6.906;2024-02-26T16:19:28;17.83;;;13.80;;
52210;SDS011;38179;52.756;6.906;2024-02-26T16:21:54;19.73;;;14.25;;
52210;SDS011;38179;52.756;6.906;2024-02-26T16:24:20;17.92;;;13.80;;
52210;SDS011;38179;52.756;6.906;2024-02-26T16:26:46;18.73;;;14.15;;
52210;SDS011;38179;52.756;6.906;2024-02-26T16:29:11;17.88;;;13.77;;
52210;SDS011;38179;52.756;6.906;2024-02-26T16:31:37;18.60;;;14.05;;
52210;SDS011;38179;52.756;6.906;2024-02-26T16:34:03;18.13;;;14.27;;
52210;SDS011;38179;52.756;6.906;2024-02-26T16:36:28;17.15;;;14.07;;
52210;SDS011;38179;52.756;6.906;2024-02-26T16:38:54;17.50;;;13.45;;
52210;SDS011;38179;52.756;6.906;2024-02-26T16:41:20;17.85;;;14.00;;
52210;SDS011;38179;52.756;6.906;2024-02-26T16:43:45;17.95;;;13.48;;
52210;SDS011;38179;52.756;6.906;2024-02-26T16:46:11;19.33;;;14.18;;
52210;SDS011;38179;52.756;6.906;2024-02-26T16:48:37;16.80;;;13.77;;
52210;SDS011;38179;52.756;6.906;2024-02-26T16:51:02;16.40;;;12.48;;
52210;SDS011;38179;52.756;6.906;2024-02-26T16:53:28;16.85;;;13.13;;
52210;SDS011;38179;52.756;6.906;2024-02-26T16:55:54;17.77;;;14.10;;
52210;SDS011;38179;52.756;6.906;2024-02-26T16:58:20;16.48;;;13.50;;
52210;SDS011;38179;52.756;6.906;2024-02-26T17:00:49;18.73;;;14.13;;
52210;SDS011;38179;52.756;6.906;2024-02-26T17:03:15;17.77;;;14.02;;
52210;SDS011;38179;52.756;6.906;2024-02-26T17:05:44;16.23;;;12.45;;
52210;SDS011;38179;52.756;6.906;2024-02-26T17:08:10;19.25;;;14.43;;
52210;SDS011;38179;52.756;6.906;2024-02-26T17:10:38;18.23;;;13.73;;
52210;SDS011;38179;52.756;6.906;2024-02-26T17:13:04;18.17;;;14.23;;
52210;SDS011;38179;52.756;6.906;2024-02-26T17:15:30;19.45;;;14.50;;
52210;SDS011;38179;52.756;6.906;2024-02-26T17:17:55;19.70;;;14.75;;
52210;SDS011;38179;52.756;6.906;2024-02-26T17:20:21;20.13;;;13.75;;
52210;SDS011;38179;52.756;6.906;2024-02-26T17:22:47;17.88;;;13.98;;
52210;SDS011;38179;52.756;6.906;2024-02-26T17:25:12;22.17;;;15.13;;
52210;SDS011;38179;52.756;6.906;2024-02-26T17:27:39;17.98;;;14.65;;
52210;SDS011;38179;52.756;6.906;2024-02-26T17:30:05;18.95;;;13.52;;
52210;SDS011;38179;52.756;6.906;2024-02-26T17:32:31;18.15;;;13.48;;
52210;SDS011;38179;52.756;6.906;2024-02-26T17:34:57;17.80;;;13.95;;
52210;SDS011;38179;52.756;6.906;2024-02-26T17:37:24;19.13;;;13.73;;
52210;SDS011;38179;52.756;6.906;2024-02-26T17:39:49;21.27;;;14.32;;
52210;SDS011;38179;52.756;6.906;2024-02-26T17:42:15;21.90;;;14.75;;
52210;SDS011;38179;52.756;6.906;2024-02-26T17:44:41;18.05;;;14.73;;
52210;SDS011;38179;52.756;6.906;2024-02-26T17:47:08;18.45;;;14.73;;
52210;SDS011;38179;52.756;6.906;2024-02-26T17:49:34;19.80;;;14.90;;
52210;SDS011;38179;52.756;6.906;2024-02-26T17:52:00;20.25;;;14.57;;
52210;SDS011;38179;52.756;6.906;2024-02-26T17:54:26;18.13;;;14.63;;
52210;SDS011;38179;52.756;6.906;2024-02-26T17:56:53;22.25;;;14.73;;
52210;SDS011;38179;52.756;6.906;2024-02-26T17:59:20;19.75;;;13.68;;
52210;SDS011;38179;52.756;6.906;2024-02-26T18:01:46;21.45;;;15.43;;
52210;SDS011;38179;52.756;6.906;2024-02-26T18:04:12;20.42;;;14.80;;
52210;SDS011;38179;52.756;6.906;2024-02-26T18:06:38;22.05;;;16.00;;
52210;SDS011;38179;52.756;6.906;2024-02-26T18:09:04;19.17;;;15.07;;
52210;SDS011;38179;52.756;6.906;2024-02-26T18:11:31;21.52;;;15.68;;
52210;SDS011;38179;52.756;6.906;2024-02-26T18:13:59;22.25;;;15.57;;
52210;SDS011;38179;52.756;6.906;2024-02-26T18:16:24;21.70;;;16.13;;
52210;SDS011;38179;52.756;6.906;2024-02-26T18:18:50;21.77;;;15.77;;
52210;SDS011;38179;52.756;6.906;2024-02-26T18:21:16;21.50;;;16.05;;
52210;SDS011;38179;52.756;6.906;2024-02-26T18:23:43;20.30;;;15.35;;
52210;SDS011;38179;52.756;6.906;2024-02-26T18:26:09;20.20;;;14.77;;
52210;SDS011;38179;52.756;6.906;2024-02-26T18:28:35;19.10;;;15.10;;
52210;SDS011;38179;52.756;6.906;2024-02-26T18:31:01;23.42;;;16.35;;
52210;SDS011;38179;52.756;6.906;2024-02-26T18:33:29;20.00;;;14.60;;
52210;SDS011;38179;52.756;6.906;2024-02-26T18:35:55;19.95;;;15.07;;
52210;SDS011;38179;52.756;6.906;2024-02-26T18:38:21;20.98;;;15.15;;
52210;SDS011;38179;52.756;6.906;2024-02-26T18:40:47;22.20;;;15.38;;
52210;SDS011;38179;52.756;6.906;2024-02-26T18:43:13;19.80;;;15.52;;
52210;SDS011;38179;52.756;6.906;2024-02-26T18:45:38;19.52;;;14.90;;
52210;SDS011;38179;52.756;6.906;2024-02-26T18:48:06;21.88;;;15.75;;
52210;SDS011;38179;52.756;6.906;2024-02-26T18:50:32;22.33;;;15.55;;
52210;SDS011;38179;52.756;6.906;2024-02-26T18:52:58;19.60;;;15.45;;
52210;SDS011;38179;52.756;6.906;2024-02-26T18:55:27;21.02;;;16.08;;
52210;SDS011;38179;52.756;6.906;2024-02-26T18:57:53;20.42;;;15.50;;
52210;SDS011;38179;52.756;6.906;2024-02-26T19:00:18;19.75;;;15.38;;
52210;SDS011;38179;52.756;6.906;2024-02-26T19:02:44;21.23;;;15.43;;
52210;SDS011;38179;52.756;6.906;2024-02-26T19:05:13;21.40;;;15.70;;
52210;SDS011;38179;52.756;6.906;2024-02-26T19:07:42;22.88;;;15.02;;
52210;SDS011;38179;52.756;6.906;2024-02-26T19:10:08;20.55;;;14.73;;
52210;SDS011;38179;52.756;6.906;2024-02-26T19:12:34;18.40;;;13.77;;
52210;SDS011;38179;52.756;6.906;2024-02-26T19:14:59;20.20;;;14.60;;
52210;SDS011;38179;52.756;6.906;2024-02-26T19:17:25;20.10;;;15.05;;
52210;SDS011;38179;52.756;6.906;2024-02-26T19:19:51;19.25;;;14.10;;
52210;SDS011;38179;52.756;6.906;2024-02-26T19:22:16;23.73;;;15.75;;
52210;SDS011;38179;52.756;6.906;2024-02-26T19:24:42;19.83;;;14.95;;
52210;SDS011;38179;52.756;6.906;2024-02-26T19:27:08;17.58;;;13.93;;
52210;SDS011;38179;52.756;6.906;2024-02-26T19:29:34;19.75;;;14.68;;
52210;SDS011;38179;52.756;6.906;2024-02-26T19:32:00;18.95;;;14.90;;
52210;SDS011;38179;52.756;6.906;2024-02-26T19:34:28;20.00;;;14.10;;
52210;SDS011;38179;52.756;6.906;2024-02-26T19:36:53;20.88;;;15.48;;
52210;SDS011;38179;52.756;6.906;2024-02-26T19:39:19;20.85;;;14.82;;
52210;SDS011;38179;52.756;6.906;2024-02-26T19:41:45;20.75;;;15.00;;
52210;SDS011;38179;52.756;6.906;2024-02-26T19:44:11;18.83;;;15.32;;
52210;SDS011;38179;52.756;6.906;2024-02-26T19:46:41;22.63;;;15.57;;
52210;SDS011;38179;52.756;6.906;2024-02-26T19:49:07;21.13;;;15.60;;
52210;SDS011;38179;52.756;6.906;2024-02-26T19:51:32;20.45;;;15.50;;
52210;SDS011;38179;52.756;6.906;2024-02-26T19:53:59;21.35;;;16.00;;
52210;SDS011;38179;52.756;6.906;2024-02-26T19:56:26;21.38;;;15.93;;
52210;SDS011;38179;52.756;6.906;2024-02-26T19:58:53;18.40;;;14.95;;
52210;SDS011;38179;52.756;6.906;2024-02-26T20:01:20;22.20;;;15.93;;
52210;SDS011;38179;52.756;6.906;2024-02-26T20:03:46;20.63;;;15.15;;
52210;SDS011;38179;52.756;6.906;2024-02-26T20:06:11;21.48;;;15.57;;
52210;SDS011;38179;52.756;6.906;2024-02-26T20:08:37;20.08;;;14.52;;
52210;SDS011;38179;52.756;6.906;2024-02-26T20:11:03;21.83;;;15.38;;
52210;SDS011;38179;52.756;6.906;2024-02-26T20:13:30;19.13;;;13.82;;
52210;SDS011;38179;52.756;6.906;2024-02-26T20:15:56;18.00;;;14.43;;
52210;SDS011;38179;52.756;6.906;2024-02-26T20:18:21;22.52;;;16.70;;
52210;SDS011;38179;52.756;6.906;2024-02-26T20:20:47;20.13;;;15.93;;
52210;SDS011;38179;52.756;6.906;2024-02-26T20:23:13;21.15;;;16.00;;
52210;SDS011;38179;52.756;6.906;2024-02-26T20:25:38;21.23;;;15.68;;
52210;SDS011;38179;52.756;6.906;2024-02-26T20:28:04;20.13;;;15.57;;
52210;SDS011;38179;52.756;6.906;2024-02-26T20:30:30;20.48;;;15.63;;
52210;SDS011;38179;52.756;6.906;2024-02-26T20:32:56;21.70;;;15.95;;
52210;SDS011;38179;52.756;6.906;2024-02-26T20:35:21;20.70;;;16.50;;
52210;SDS011;38179;52.756;6.906;2024-02-26T20:37:47;22.27;;;16.27;;
52210;SDS011;38179;52.756;6.906;2024-02-26T20:40:13;21.95;;;17.08;;
52210;SDS011;38179;52.756;6.906;2024-02-26T20:42:44;22.67;;;16.65;;
52210;SDS011;38179;52.756;6.906;2024-02-26T20:45:11;21.30;;;16.75;;
52210;SDS011;38179;52.756;6.906;2024-02-26T20:47:38;23.42;;;17.10;;
52210;SDS011;38179;52.756;6.906;2024-02-26T20:50:04;22.58;;;15.98;;
52210;SDS011;38179;52.756;6.906;2024-02-26T20:52:31;22.70;;;16.75;;
52210;SDS011;38179;52.756;6.906;2024-02-26T20:54:57;21.45;;;16.73;;
52210;SDS011;38179;52.756;6.906;2024-02-26T20:57:23;22.65;;;17.63;;
52210;SDS011;38179;52.756;6.906;2024-02-26T20:59:49;26.50;;;17.08;;
52210;SDS011;38179;52.756;6.906;2024-02-26T21:02:15;22.27;;;16.70;;
52210;SDS011;38179;52.756;6.906;2024-02-26T21:04:41;21.17;;;16.42;;
52210;SDS011;38179;52.756;6.906;2024-02-26T21:07:07;23.20;;;17.02;;
52210;SDS011;38179;52.756;6.906;2024-02-26T21:09:32;24.13;;;17.17;;
52210;SDS011;38179;52.756;6.906;2024-02-26T21:11:58;22.08;;;16.75;;
52210;SDS011;38179;52.756;6.906;2024-02-26T21:14:24;21.33;;;16.20;;
52210;SDS011;38179;52.756;6.906;2024-02-26T21:16:49;25.50;;;17.75;;
52210;SDS011;38179;52.756;6.906;2024-02-26T21:19:15;23.20;;;16.77;;
52210;SDS011;38179;52.756;6.906;2024-02-26T21:21:41;24.38;;;16.92;;
52210;SDS011;38179;52.756;6.906;2024-02-26T21:24:06;21.65;;;16.20;;
52210;SDS011;38179;52.756;6.906;2024-02-26T21:26:32;22.85;;;17.30;;
52210;SDS011;38179;52.756;6.906;2024-02-26T21:28:58;22.50;;;16.92;;
52210;SDS011;38179;52.756;6.906;2024-02-26T21:31:24;23.83;;;16.90;;
52210;SDS011;38179;52.756;6.906;2024-02-26T21:33:50;21.40;;;16.58;;
52210;SDS011;38179;52.756;6.906;2024-02-26T21:36:15;23.95;;;17.13;;
52210;SDS011;38179;52.756;6.906;2024-02-26T21:38:45;21.63;;;16.98;;
52210;SDS011;38179;52.756;6.906;2024-02-26T21:41:11;24.67;;;17.33;;
52210;SDS011;38179;52.756;6.906;2024-02-26T21:43:38;21.67;;;17.05;;
52210;SDS011;38179;52.756;6.906;2024-02-26T21:46:04;23.73;;;17.55;;
52210;SDS011;38179;52.756;6.906;2024-02-26T21:48:31;24.15;;;17.10;;
52210;SDS011;38179;52.756;6.906;2024-02-26T21:50:56;23.88;;;16.55;;
52210;SDS011;38179;52.756;6.906;2024-02-26T21:53:22;26.42;;;18.45;;
52210;SDS011;38179;52.756;6.906;2024-02-26T21:55:48;22.20;;;16.85;;
52210;SDS011;38179;52.756;6.906;2024-02-26T21:58:13;22.83;;;16.58;;
52210;SDS011;38179;52.756;6.906;2024-02-26T22:00:39;22.48;;;16.42;;